sensor_id;sensor_type;location;lat;lon;timestamp;P1;durP1;ratioP1;P2;durP2;ratioP2
8490;SDS011;4282;49.986;7.938;2023-07-31T00:01:38;4.20;;;1.83;;
8490;SDS011;4282;49.986;7.938;2023-07-31T00:04:09;3.83;;;1.60;;
8490;SDS011;4282;49.986;7.938;2023-07-31T00:06:37;3.20;;;1.70;;
8490;SDS011;4282;49.986;7.938;2023-07-31T00:09:05;5.00;;;2.10;;
8490;SDS011;4282;49.986;7.938;2023-07-31T00:11:34;4.22;;;1.67;;
8490;SDS011;4282;49.986;7.938;2023-07-31T00:14:02;6.63;;;2.40;;
8490;SDS011;4282;49.986;7.938;2023-07-31T00:16:30;3.05;;;1.63;;
8490;SDS011;4282;49.986;7.938;2023-07-31T00:18:58;3.65;;;1.67;;
8490;SDS011;4282;49.986;7.938;2023-07-31T00:21:29;3.85;;;1.80;;
8490;SDS011;4282;49.986;7.938;2023-07-31T00:23:57;3.28;;;1.90;;
8490;SDS011;4282;49.986;7.938;2023-07-31T00:26:26;2.80;;;1.73;;
8490;SDS011;4282;49.986;7.938;2023-07-31T00:28:54;2.67;;;1.67;;
8490;SDS011;4282;49.986;7.938;2023-07-31T00:31:22;2.78;;;1.88;;
8490;SDS011;4282;49.986;7.938;2023-07-31T00:33:50;3.97;;;1.70;;
8490;SDS011;4282;49.986;7.938;2023-07-31T00:36:18;5.55;;;2.03;;
8490;SDS011;4282;49.986;7.938;2023-07-31T00:38:49;5.20;;;1.75;;
8490;SDS011;4282;49.986;7.938;2023-07-31T00:41:17;2.75;;;1.70;;
8490;SDS011;4282;49.986;7.938;2023-07-31T00:43:46;3.65;;;1.85;;
8490;SDS011;4282;49.986;7.938;2023-07-31T00:46:14;4.38;;;1.98;;
8490;SDS011;4282;49.986;7.938;2023-07-31T00:48:42;2.88;;;1.48;;
8490;SDS011;4282;49.986;7.938;2023-07-31T00:51:11;6.65;;;1.70;;
8490;SDS011;4282;49.986;7.938;2023-07-31T00:53:39;3.40;;;1.73;;
8490;SDS011;4282;49.986;7.938;2023-07-31T00:56:10;4.20;;;2.00;;
8490;SDS011;4282;49.986;7.938;2023-07-31T00:58:39;5.45;;;1.80;;
8490;SDS011;4282;49.986;7.938;2023-07-31T01:01:07;3.20;;;1.83;;
8490;SDS011;4282;49.986;7.938;2023-07-31T01:03:35;4.78;;;1.70;;
8490;SDS011;4282;49.986;7.938;2023-07-31T01:06:08;4.95;;;2.17;;
8490;SDS011;4282;49.986;7.938;2023-07-31T01:08:44;2.83;;;1.80;;
8490;SDS011;4282;49.986;7.938;2023-07-31T01:11:23;5.35;;;1.80;;
8490;SDS011;4282;49.986;7.938;2023-07-31T01:13:55;3.23;;;1.70;;
8490;SDS011;4282;49.986;7.938;2023-07-31T01:16:24;5.30;;;1.70;;
8490;SDS011;4282;49.986;7.938;2023-07-31T01:18:53;2.83;;;1.77;;
8490;SDS011;4282;49.986;7.938;2023-07-31T01:21:23;5.10;;;2.03;;
8490;SDS011;4282;49.986;7.938;2023-07-31T01:24:05;2.60;;;2.00;;
8490;SDS011;4282;49.986;7.938;2023-07-31T01:26:43;4.03;;;1.73;;
8490;SDS011;4282;49.986;7.938;2023-07-31T01:29:14;4.50;;;1.90;;
8490;SDS011;4282;49.986;7.938;2023-07-31T01:31:48;4.28;;;1.88;;
8490;SDS011;4282;49.986;7.938;2023-07-31T01:34:16;3.70;;;2.10;;
8490;SDS011;4282;49.986;7.938;2023-07-31T01:36:45;5.20;;;2.03;;
8490;SDS011;4282;49.986;7.938;2023-07-31T01:39:14;3.30;;;2.20;;
8490;SDS011;4282;49.986;7.938;2023-07-31T01:41:45;3.17;;;2.25;;
8490;SDS011;4282;49.986;7.938;2023-07-31T01:44:13;3.10;;;1.80;;
8490;SDS011;4282;49.986;7.938;2023-07-31T01:46:42;3.80;;;2.17;;
8490;SDS011;4282;49.986;7.938;2023-07-31T01:49:10;3.72;;;2.08;;
8490;SDS011;4282;49.986;7.938;2023-07-31T01:51:38;4.32;;;2.45;;
8490;SDS011;4282;49.986;7.938;2023-07-31T01:54:06;3.78;;;2.00;;
8490;SDS011;4282;49.986;7.938;2023-07-31T01:56:34;3.22;;;2.00;;
8490;SDS011;4282;49.986;7.938;2023-07-31T01:59:05;5.10;;;2.08;;
8490;SDS011;4282;49.986;7.938;2023-07-31T02:01:34;4.03;;;2.33;;
8490;SDS011;4282;49.986;7.938;2023-07-31T02:04:02;2.85;;;2.17;;
8490;SDS011;4282;49.986;7.938;2023-07-31T02:06:30;4.38;;;1.95;;
8490;SDS011;4282;49.986;7.938;2023-07-31T02:08:58;5.05;;;2.10;;
8490;SDS011;4282;49.986;7.938;2023-07-31T02:11:27;4.35;;;2.10;;
8490;SDS011;4282;49.986;7.938;2023-07-31T02:13:55;4.25;;;2.03;;
8490;SDS011;4282;49.986;7.938;2023-07-31T02:16:26;2.78;;;1.80;;
8490;SDS011;4282;49.986;7.938;2023-07-31T02:18:54;6.13;;;2.03;;
8490;SDS011;4282;49.986;7.938;2023-07-31T02:21:22;7.78;;;2.30;;
8490;SDS011;4282;49.986;7.938;2023-07-31T02:23:50;2.88;;;2.10;;
8490;SDS011;4282;49.986;7.938;2023-07-31T02:26:19;4.53;;;2.22;;
8490;SDS011;4282;49.986;7.938;2023-07-31T02:28:47;4.88;;;2.30;;
8490;SDS011;4282;49.986;7.938;2023-07-31T02:31:15;2.70;;;2.30;;
8490;SDS011;4282;49.986;7.938;2023-07-31T02:33:46;5.75;;;2.00;;
8490;SDS011;4282;49.986;7.938;2023-07-31T02:36:14;5.03;;;2.20;;
8490;SDS011;4282;49.986;7.938;2023-07-31T02:38:42;2.42;;;2.13;;
8490;SDS011;4282;49.986;7.938;2023-07-31T02:41:11;4.18;;;1.70;;
8490;SDS011;4282;49.986;7.938;2023-07-31T02:43:39;5.28;;;2.03;;
8490;SDS011;4282;49.986;7.938;2023-07-31T02:46:07;3.13;;;1.70;;
8490;SDS011;4282;49.986;7.938;2023-07-31T02:48:35;2.92;;;2.13;;
8490;SDS011;4282;49.986;7.938;2023-07-31T02:51:06;3.20;;;2.17;;
8490;SDS011;4282;49.986;7.938;2023-07-31T02:53:34;4.00;;;2.13;;
8490;SDS011;4282;49.986;7.938;2023-07-31T02:56:03;5.57;;;2.08;;
8490;SDS011;4282;49.986;7.938;2023-07-31T02:58:31;5.03;;;2.15;;
8490;SDS011;4282;49.986;7.938;2023-07-31T03:01:00;2.75;;;1.90;;
8490;SDS011;4282;49.986;7.938;2023-07-31T03:03:28;4.47;;;2.30;;
8490;SDS011;4282;49.986;7.938;2023-07-31T03:05:56;4.55;;;2.03;;
8490;SDS011;4282;49.986;7.938;2023-07-31T03:08:27;4.10;;;2.30;;
8490;SDS011;4282;49.986;7.938;2023-07-31T03:10:56;3.60;;;1.88;;
8490;SDS011;4282;49.986;7.938;2023-07-31T03:13:24;4.80;;;1.77;;
8490;SDS011;4282;49.986;7.938;2023-07-31T03:15:52;5.68;;;2.17;;
8490;SDS011;4282;49.986;7.938;2023-07-31T03:18:21;4.40;;;1.80;;
8490;SDS011;4282;49.986;7.938;2023-07-31T03:20:49;4.28;;;2.00;;
8490;SDS011;4282;49.986;7.938;2023-07-31T03:23:17;2.50;;;1.90;;
8490;SDS011;4282;49.986;7.938;2023-07-31T03:25:57;4.43;;;2.58;;
8490;SDS011;4282;49.986;7.938;2023-07-31T03:28:26;4.82;;;2.42;;
8490;SDS011;4282;49.986;7.938;2023-07-31T03:30:55;4.45;;;2.50;;
8490;SDS011;4282;49.986;7.938;2023-07-31T03:33:23;4.93;;;1.80;;
8490;SDS011;4282;49.986;7.938;2023-07-31T03:35:51;5.30;;;2.40;;
8490;SDS011;4282;49.986;7.938;2023-07-31T03:38:19;4.60;;;2.70;;
8490;SDS011;4282;49.986;7.938;2023-07-31T03:40:48;4.47;;;2.40;;
8490;SDS011;4282;49.986;7.938;2023-07-31T03:43:18;2.33;;;2.00;;
8490;SDS011;4282;49.986;7.938;2023-07-31T03:45:47;3.80;;;2.17;;
8490;SDS011;4282;49.986;7.938;2023-07-31T03:48:15;3.88;;;2.38;;
8490;SDS011;4282;49.986;7.938;2023-07-31T03:50:43;4.03;;;2.30;;
8490;SDS011;4282;49.986;7.938;2023-07-31T03:53:12;6.15;;;2.50;;
8490;SDS011;4282;49.986;7.938;2023-07-31T03:55:40;5.65;;;2.55;;
8490;SDS011;4282;49.986;7.938;2023-07-31T03:58:08;3.47;;;2.40;;
8490;SDS011;4282;49.986;7.938;2023-07-31T04:00:39;5.80;;;2.05;;
8490;SDS011;4282;49.986;7.938;2023-07-31T04:03:08;4.15;;;2.25;;
8490;SDS011;4282;49.986;7.938;2023-07-31T04:05:38;3.53;;;2.30;;
8490;SDS011;4282;49.986;7.938;2023-07-31T04:08:06;6.57;;;2.17;;
8490;SDS011;4282;49.986;7.938;2023-07-31T04:10:34;4.07;;;1.80;;
8490;SDS011;4282;49.986;7.938;2023-07-31T04:13:03;5.13;;;2.10;;
8490;SDS011;4282;49.986;7.938;2023-07-31T04:15:31;6.60;;;2.53;;
8490;SDS011;4282;49.986;7.938;2023-07-31T04:18:02;4.18;;;2.20;;
8490;SDS011;4282;49.986;7.938;2023-07-31T04:20:30;5.55;;;2.17;;
8490;SDS011;4282;49.986;7.938;2023-07-31T04:22:58;7.95;;;2.30;;
8490;SDS011;4282;49.986;7.938;2023-07-31T04:25:26;3.42;;;2.30;;
8490;SDS011;4282;49.986;7.938;2023-07-31T04:27:55;5.60;;;2.17;;
8490;SDS011;4282;49.986;7.938;2023-07-31T04:30:23;3.50;;;3.17;;
8490;SDS011;4282;49.986;7.938;2023-07-31T04:32:52;5.13;;;2.45;;
8490;SDS011;4282;49.986;7.938;2023-07-31T04:35:23;3.92;;;2.10;;
8490;SDS011;4282;49.986;7.938;2023-07-31T04:37:51;4.60;;;2.30;;
8490;SDS011;4282;49.986;7.938;2023-07-31T04:40:19;5.70;;;2.38;;
8490;SDS011;4282;49.986;7.938;2023-07-31T04:42:48;4.32;;;2.08;;
8490;SDS011;4282;49.986;7.938;2023-07-31T04:45:16;4.13;;;2.30;;
8490;SDS011;4282;49.986;7.938;2023-07-31T04:47:45;6.33;;;2.50;;
8490;SDS011;4282;49.986;7.938;2023-07-31T04:50:13;5.55;;;2.30;;
8490;SDS011;4282;49.986;7.938;2023-07-31T04:52:44;4.50;;;2.72;;
8490;SDS011;4282;49.986;7.938;2023-07-31T04:55:12;10.60;;;2.97;;
8490;SDS011;4282;49.986;7.938;2023-07-31T04:57:40;6.35;;;2.50;;
8490;SDS011;4282;49.986;7.938;2023-07-31T05:00:09;7.33;;;3.23;;
8490;SDS011;4282;49.986;7.938;2023-07-31T05:02:38;5.00;;;2.40;;
8490;SDS011;4282;49.986;7.938;2023-07-31T05:05:06;6.87;;;2.73;;
8490;SDS011;4282;49.986;7.938;2023-07-31T05:07:35;7.03;;;2.30;;
8490;SDS011;4282;49.986;7.938;2023-07-31T05:10:07;4.67;;;1.97;;
8490;SDS011;4282;49.986;7.938;2023-07-31T05:12:36;5.73;;;2.20;;
8490;SDS011;4282;49.986;7.938;2023-07-31T05:15:04;8.17;;;2.80;;
8490;SDS011;4282;49.986;7.938;2023-07-31T05:17:33;7.17;;;3.03;;
8490;SDS011;4282;49.986;7.938;2023-07-31T05:20:02;3.80;;;2.70;;
8490;SDS011;4282;49.986;7.938;2023-07-31T05:22:30;4.75;;;2.20;;
8490;SDS011;4282;49.986;7.938;2023-07-31T05:24:58;4.45;;;2.25;;
8490;SDS011;4282;49.986;7.938;2023-07-31T05:27:29;3.63;;;2.30;;
8490;SDS011;4282;49.986;7.938;2023-07-31T05:29:57;5.90;;;2.40;;
8490;SDS011;4282;49.986;7.938;2023-07-31T05:32:26;12.87;;;2.70;;
8490;SDS011;4282;49.986;7.938;2023-07-31T05:34:54;7.40;;;2.73;;
8490;SDS011;4282;49.986;7.938;2023-07-31T05:37:22;3.65;;;2.40;;
8490;SDS011;4282;49.986;7.938;2023-07-31T05:39:51;4.77;;;2.50;;
8490;SDS011;4282;49.986;7.938;2023-07-31T05:42:19;4.70;;;2.30;;
8490;SDS011;4282;49.986;7.938;2023-07-31T05:44:50;5.20;;;2.43;;
8490;SDS011;4282;49.986;7.938;2023-07-31T05:47:18;5.37;;;2.40;;
8490;SDS011;4282;49.986;7.938;2023-07-31T05:49:46;7.80;;;2.45;;
8490;SDS011;4282;49.986;7.938;2023-07-31T05:52:17;4.43;;;2.38;;
8490;SDS011;4282;49.986;7.938;2023-07-31T05:54:45;5.68;;;2.30;;
8490;SDS011;4282;49.986;7.938;2023-07-31T05:57:14;3.33;;;2.50;;
8490;SDS011;4282;49.986;7.938;2023-07-31T05:59:42;5.68;;;2.97;;
8490;SDS011;4282;49.986;7.938;2023-07-31T06:02:13;6.03;;;2.45;;
8490;SDS011;4282;49.986;7.938;2023-07-31T06:04:41;3.08;;;2.03;;
8490;SDS011;4282;49.986;7.938;2023-07-31T06:07:09;4.40;;;2.22;;
8490;SDS011;4282;49.986;7.938;2023-07-31T06:09:38;5.78;;;3.40;;
8490;SDS011;4282;49.986;7.938;2023-07-31T06:12:07;3.67;;;2.35;;
8490;SDS011;4282;49.986;7.938;2023-07-31T06:14:35;5.30;;;2.55;;
8490;SDS011;4282;49.986;7.938;2023-07-31T06:17:04;7.55;;;2.90;;
8490;SDS011;4282;49.986;7.938;2023-07-31T06:19:35;5.47;;;2.73;;
8490;SDS011;4282;49.986;7.938;2023-07-31T06:22:03;6.32;;;2.35;;
8490;SDS011;4282;49.986;7.938;2023-07-31T06:24:32;9.15;;;2.80;;
8490;SDS011;4282;49.986;7.938;2023-07-31T06:27:00;6.18;;;2.47;;
8490;SDS011;4282;49.986;7.938;2023-07-31T06:29:30;4.80;;;2.75;;
8490;SDS011;4282;49.986;7.938;2023-07-31T06:31:58;6.10;;;2.70;;
8490;SDS011;4282;49.986;7.938;2023-07-31T06:34:27;5.18;;;2.63;;
8490;SDS011;4282;49.986;7.938;2023-07-31T06:36:58;4.70;;;2.83;;
8490;SDS011;4282;49.986;7.938;2023-07-31T06:39:26;6.23;;;2.40;;
8490;SDS011;4282;49.986;7.938;2023-07-31T06:41:54;3.23;;;2.10;;
8490;SDS011;4282;49.986;7.938;2023-07-31T06:44:22;7.13;;;2.70;;
8490;SDS011;4282;49.986;7.938;2023-07-31T06:46:53;4.97;;;2.40;;
8490;SDS011;4282;49.986;7.938;2023-07-31T06:49:22;4.90;;;2.47;;
8490;SDS011;4282;49.986;7.938;2023-07-31T06:51:50;5.03;;;2.35;;
8490;SDS011;4282;49.986;7.938;2023-07-31T06:54:21;5.88;;;2.55;;
8490;SDS011;4282;49.986;7.938;2023-07-31T06:56:49;6.55;;;2.25;;
8490;SDS011;4282;49.986;7.938;2023-07-31T06:59:17;5.57;;;2.72;;
8490;SDS011;4282;49.986;7.938;2023-07-31T07:01:45;5.43;;;2.03;;
8490;SDS011;4282;49.986;7.938;2023-07-31T07:04:13;6.03;;;2.45;;
8490;SDS011;4282;49.986;7.938;2023-07-31T07:06:42;4.93;;;2.63;;
8490;SDS011;4282;49.986;7.938;2023-07-31T07:09:10;4.03;;;2.20;;
8490;SDS011;4282;49.986;7.938;2023-07-31T07:11:41;4.05;;;2.45;;
8490;SDS011;4282;49.986;7.938;2023-07-31T07:14:09;5.85;;;2.58;;
8490;SDS011;4282;49.986;7.938;2023-07-31T07:16:38;4.82;;;2.35;;
8490;SDS011;4282;49.986;7.938;2023-07-31T07:19:06;9.48;;;3.40;;
8490;SDS011;4282;49.986;7.938;2023-07-31T07:21:34;7.90;;;2.78;;
8490;SDS011;4282;49.986;7.938;2023-07-31T07:24:02;7.38;;;2.65;;
8490;SDS011;4282;49.986;7.938;2023-07-31T07:26:31;2.92;;;2.25;;
8490;SDS011;4282;49.986;7.938;2023-07-31T07:29:02;4.57;;;2.40;;
8490;SDS011;4282;49.986;7.938;2023-07-31T07:31:32;5.60;;;2.17;;
8490;SDS011;4282;49.986;7.938;2023-07-31T07:34:01;4.53;;;2.25;;
8490;SDS011;4282;49.986;7.938;2023-07-31T07:36:30;5.68;;;2.33;;
8490;SDS011;4282;49.986;7.938;2023-07-31T07:38:58;5.53;;;2.55;;
8490;SDS011;4282;49.986;7.938;2023-07-31T07:41:26;4.18;;;2.40;;
8490;SDS011;4282;49.986;7.938;2023-07-31T07:43:54;3.58;;;2.50;;
8490;SDS011;4282;49.986;7.938;2023-07-31T07:46:25;3.15;;;2.58;;
8490;SDS011;4282;49.986;7.938;2023-07-31T07:48:53;5.82;;;2.30;;
8490;SDS011;4282;49.986;7.938;2023-07-31T07:51:22;7.25;;;2.30;;
8490;SDS011;4282;49.986;7.938;2023-07-31T07:53:50;4.93;;;2.40;;
8490;SDS011;4282;49.986;7.938;2023-07-31T07:56:18;7.43;;;2.63;;
8490;SDS011;4282;49.986;7.938;2023-07-31T07:58:48;8.38;;;2.78;;
8490;SDS011;4282;49.986;7.938;2023-07-31T08:01:16;4.10;;;2.33;;
8490;SDS011;4282;49.986;7.938;2023-07-31T08:03:47;5.95;;;2.20;;
8490;SDS011;4282;49.986;7.938;2023-07-31T08:06:15;4.43;;;2.53;;
8490;SDS011;4282;49.986;7.938;2023-07-31T08:08:44;5.30;;;2.30;;
8490;SDS011;4282;49.986;7.938;2023-07-31T08:11:13;8.57;;;2.88;;
8490;SDS011;4282;49.986;7.938;2023-07-31T08:13:41;4.60;;;2.17;;
8490;SDS011;4282;49.986;7.938;2023-07-31T08:16:09;4.57;;;2.28;;
8490;SDS011;4282;49.986;7.938;2023-07-31T08:18:37;4.75;;;2.63;;
8490;SDS011;4282;49.986;7.938;2023-07-31T08:21:10;5.32;;;2.58;;
8490;SDS011;4282;49.986;7.938;2023-07-31T08:23:38;3.35;;;2.00;;
8490;SDS011;4282;49.986;7.938;2023-07-31T08:26:06;2.95;;;2.00;;
8490;SDS011;4282;49.986;7.938;2023-07-31T08:28:35;7.70;;;2.53;;
8490;SDS011;4282;49.986;7.938;2023-07-31T08:31:05;4.07;;;2.75;;
8490;SDS011;4282;49.986;7.938;2023-07-31T08:33:33;4.93;;;2.40;;
8490;SDS011;4282;49.986;7.938;2023-07-31T08:36:01;3.72;;;2.00;;
8490;SDS011;4282;49.986;7.938;2023-07-31T08:38:33;3.67;;;2.35;;
8490;SDS011;4282;49.986;7.938;2023-07-31T08:41:02;4.28;;;1.98;;
8490;SDS011;4282;49.986;7.938;2023-07-31T08:43:30;3.75;;;2.65;;
8490;SDS011;4282;49.986;7.938;2023-07-31T08:45:59;5.93;;;2.60;;
8490;SDS011;4282;49.986;7.938;2023-07-31T08:48:27;4.28;;;2.10;;
8490;SDS011;4282;49.986;7.938;2023-07-31T08:50:56;6.97;;;2.55;;
8490;SDS011;4282;49.986;7.938;2023-07-31T08:53:24;5.35;;;2.53;;
8490;SDS011;4282;49.986;7.938;2023-07-31T08:55:55;4.60;;;2.30;;
8490;SDS011;4282;49.986;7.938;2023-07-31T08:58:24;5.40;;;2.40;;
8490;SDS011;4282;49.986;7.938;2023-07-31T09:00:53;3.72;;;2.10;;
8490;SDS011;4282;49.986;7.938;2023-07-31T09:03:23;4.00;;;1.88;;
8490;SDS011;4282;49.986;7.938;2023-07-31T09:05:53;3.33;;;2.20;;
8490;SDS011;4282;49.986;7.938;2023-07-31T09:08:24;5.80;;;2.30;;
8490;SDS011;4282;49.986;7.938;2023-07-31T09:10:58;4.13;;;2.50;;
8490;SDS011;4282;49.986;7.938;2023-07-31T09:13:28;4.03;;;2.10;;
8490;SDS011;4282;49.986;7.938;2023-07-31T09:15:58;2.65;;;2.35;;
8490;SDS011;4282;49.986;7.938;2023-07-31T09:18:26;4.78;;;2.60;;
8490;SDS011;4282;49.986;7.938;2023-07-31T09:21:00;4.63;;;2.20;;
8490;SDS011;4282;49.986;7.938;2023-07-31T09:26:28;4.25;;;2.13;;
8490;SDS011;4282;49.986;7.938;2023-07-31T09:28:57;7.13;;;2.80;;
8490;SDS011;4282;49.986;7.938;2023-07-31T09:31:32;4.20;;;2.25;;
8490;SDS011;4282;49.986;7.938;2023-07-31T09:34:01;4.60;;;2.33;;
8490;SDS011;4282;49.986;7.938;2023-07-31T09:36:30;7.95;;;2.58;;
8490;SDS011;4282;49.986;7.938;2023-07-31T09:39:01;12.07;;;3.20;;
8490;SDS011;4282;49.986;7.938;2023-07-31T09:41:33;8.60;;;3.42;;
8490;SDS011;4282;49.986;7.938;2023-07-31T09:44:04;6.82;;;2.80;;
8490;SDS011;4282;49.986;7.938;2023-07-31T09:46:34;4.43;;;2.75;;
8490;SDS011;4282;49.986;7.938;2023-07-31T09:49:03;4.82;;;2.53;;
8490;SDS011;4282;49.986;7.938;2023-07-31T09:51:37;4.68;;;2.65;;
8490;SDS011;4282;49.986;7.938;2023-07-31T09:54:09;4.78;;;2.50;;
8490;SDS011;4282;49.986;7.938;2023-07-31T09:56:45;3.90;;;2.53;;
8490;SDS011;4282;49.986;7.938;2023-07-31T09:59:15;4.78;;;2.28;;
8490;SDS011;4282;49.986;7.938;2023-07-31T10:01:44;6.90;;;2.42;;
8490;SDS011;4282;49.986;7.938;2023-07-31T10:04:14;5.97;;;2.83;;
8490;SDS011;4282;49.986;7.938;2023-07-31T10:06:42;4.47;;;2.90;;
8490;SDS011;4282;49.986;7.938;2023-07-31T10:09:11;6.68;;;2.80;;
8490;SDS011;4282;49.986;7.938;2023-07-31T10:11:46;6.90;;;2.38;;
8490;SDS011;4282;49.986;7.938;2023-07-31T10:14:16;4.10;;;2.70;;
8490;SDS011;4282;49.986;7.938;2023-07-31T10:16:45;4.60;;;2.40;;
8490;SDS011;4282;49.986;7.938;2023-07-31T10:19:13;4.82;;;2.88;;
8490;SDS011;4282;49.986;7.938;2023-07-31T10:21:42;5.10;;;2.60;;
8490;SDS011;4282;49.986;7.938;2023-07-31T10:24:10;4.63;;;2.67;;
8490;SDS011;4282;49.986;7.938;2023-07-31T10:26:40;4.90;;;2.75;;
8490;SDS011;4282;49.986;7.938;2023-07-31T10:29:11;4.35;;;2.35;;
8490;SDS011;4282;49.986;7.938;2023-07-31T10:31:40;5.65;;;2.90;;
8490;SDS011;4282;49.986;7.938;2023-07-31T10:34:08;5.35;;;2.72;;
8490;SDS011;4282;49.986;7.938;2023-07-31T10:36:37;4.75;;;2.45;;
8490;SDS011;4282;49.986;7.938;2023-07-31T10:39:05;6.32;;;2.78;;
8490;SDS011;4282;49.986;7.938;2023-07-31T10:42:11;3.35;;;2.58;;
8490;SDS011;4282;49.986;7.938;2023-07-31T10:44:46;5.32;;;2.85;;
8490;SDS011;4282;49.986;7.938;2023-07-31T10:47:14;4.28;;;2.40;;
8490;SDS011;4282;49.986;7.938;2023-07-31T10:49:44;3.50;;;2.30;;
8490;SDS011;4282;49.986;7.938;2023-07-31T10:52:13;3.30;;;2.45;;
8490;SDS011;4282;49.986;7.938;2023-07-31T10:54:41;3.58;;;2.45;;
8490;SDS011;4282;49.986;7.938;2023-07-31T10:57:18;7.30;;;2.45;;
8490;SDS011;4282;49.986;7.938;2023-07-31T10:59:50;4.53;;;2.75;;
8490;SDS011;4282;49.986;7.938;2023-07-31T11:02:25;4.55;;;2.25;;
8490;SDS011;4282;49.986;7.938;2023-07-31T11:05:05;3.45;;;2.10;;
8490;SDS011;4282;49.986;7.938;2023-07-31T11:10:23;3.60;;;2.38;;
8490;SDS011;4282;49.986;7.938;2023-07-31T11:12:51;3.58;;;2.30;;
8490;SDS011;4282;49.986;7.938;2023-07-31T11:15:22;3.05;;;2.33;;
8490;SDS011;4282;49.986;7.938;2023-07-31T11:17:55;7.00;;;2.85;;
8490;SDS011;4282;49.986;7.938;2023-07-31T11:20:23;4.65;;;2.45;;
8490;SDS011;4282;49.986;7.938;2023-07-31T11:22:51;3.38;;;2.20;;
8490;SDS011;4282;49.986;7.938;2023-07-31T11:25:20;4.25;;;2.05;;
8490;SDS011;4282;49.986;7.938;2023-07-31T11:27:50;2.90;;;2.42;;
8490;SDS011;4282;49.986;7.938;2023-07-31T11:30:21;3.95;;;2.38;;
8490;SDS011;4282;49.986;7.938;2023-07-31T11:32:50;5.65;;;2.25;;
8490;SDS011;4282;49.986;7.938;2023-07-31T11:35:18;6.50;;;2.40;;
8490;SDS011;4282;49.986;7.938;2023-07-31T11:37:47;6.07;;;2.90;;
8490;SDS011;4282;49.986;7.938;2023-07-31T11:40:16;7.28;;;2.42;;
8490;SDS011;4282;49.986;7.938;2023-07-31T11:42:45;5.88;;;2.47;;
8490;SDS011;4282;49.986;7.938;2023-07-31T11:45:13;5.10;;;2.00;;
8490;SDS011;4282;49.986;7.938;2023-07-31T11:47:44;3.53;;;2.03;;
8490;SDS011;4282;49.986;7.938;2023-07-31T11:50:13;6.10;;;2.40;;
8490;SDS011;4282;49.986;7.938;2023-07-31T11:52:42;8.02;;;2.30;;
8490;SDS011;4282;49.986;7.938;2023-07-31T11:55:12;2.72;;;2.25;;
8490;SDS011;4282;49.986;7.938;2023-07-31T11:57:41;4.30;;;2.05;;
8490;SDS011;4282;49.986;7.938;2023-07-31T12:00:11;9.75;;;3.45;;
8490;SDS011;4282;49.986;7.938;2023-07-31T12:02:44;4.75;;;2.30;;
8490;SDS011;4282;49.986;7.938;2023-07-31T12:05:13;4.10;;;2.42;;
8490;SDS011;4282;49.986;7.938;2023-07-31T12:07:45;3.55;;;2.40;;
8490;SDS011;4282;49.986;7.938;2023-07-31T12:10:23;5.10;;;2.47;;
8490;SDS011;4282;49.986;7.938;2023-07-31T12:12:56;7.00;;;2.53;;
8490;SDS011;4282;49.986;7.938;2023-07-31T12:15:29;4.38;;;2.50;;
8490;SDS011;4282;49.986;7.938;2023-07-31T12:18:01;4.57;;;2.75;;
8490;SDS011;4282;49.986;7.938;2023-07-31T12:20:32;4.20;;;2.30;;
8490;SDS011;4282;49.986;7.938;2023-07-31T12:23:00;3.85;;;2.40;;
8490;SDS011;4282;49.986;7.938;2023-07-31T12:25:32;2.85;;;1.98;;
8490;SDS011;4282;49.986;7.938;2023-07-31T12:28:05;3.92;;;2.00;;
8490;SDS011;4282;49.986;7.938;2023-07-31T12:30:37;2.03;;;1.70;;
8490;SDS011;4282;49.986;7.938;2023-07-31T12:33:12;3.50;;;2.10;;
8490;SDS011;4282;49.986;7.938;2023-07-31T12:35:43;3.35;;;2.10;;
8490;SDS011;4282;49.986;7.938;2023-07-31T12:38:12;4.13;;;1.88;;
8490;SDS011;4282;49.986;7.938;2023-07-31T12:40:41;3.40;;;2.10;;
8490;SDS011;4282;49.986;7.938;2023-07-31T12:43:09;3.47;;;2.17;;
8490;SDS011;4282;49.986;7.938;2023-07-31T12:45:38;4.40;;;2.13;;
8490;SDS011;4282;49.986;7.938;2023-07-31T12:48:08;3.35;;;1.52;;
8490;SDS011;4282;49.986;7.938;2023-07-31T12:50:37;4.70;;;1.92;;
8490;SDS011;4282;49.986;7.938;2023-07-31T12:53:05;2.38;;;1.90;;
8490;SDS011;4282;49.986;7.938;2023-07-31T12:55:34;2.88;;;1.83;;
8490;SDS011;4282;49.986;7.938;2023-07-31T12:58:02;2.70;;;1.98;;
8490;SDS011;4282;49.986;7.938;2023-07-31T13:00:30;4.00;;;2.45;;
8490;SDS011;4282;49.986;7.938;2023-07-31T13:02:58;1.95;;;1.73;;
8490;SDS011;4282;49.986;7.938;2023-07-31T13:05:30;4.32;;;2.17;;
8490;SDS011;4282;49.986;7.938;2023-07-31T13:07:58;4.20;;;1.75;;
8490;SDS011;4282;49.986;7.938;2023-07-31T13:10:26;3.97;;;1.90;;
8490;SDS011;4282;49.986;7.938;2023-07-31T13:12:55;4.00;;;1.98;;
8490;SDS011;4282;49.986;7.938;2023-07-31T13:15:23;3.30;;;1.83;;
8490;SDS011;4282;49.986;7.938;2023-07-31T13:17:52;3.45;;;1.73;;
8490;SDS011;4282;49.986;7.938;2023-07-31T13:20:20;3.22;;;1.85;;
8490;SDS011;4282;49.986;7.938;2023-07-31T13:22:51;3.20;;;1.70;;
8490;SDS011;4282;49.986;7.938;2023-07-31T13:25:19;2.67;;;2.00;;
8490;SDS011;4282;49.986;7.938;2023-07-31T13:27:47;4.60;;;1.80;;
8490;SDS011;4282;49.986;7.938;2023-07-31T13:30:15;3.40;;;1.50;;
8490;SDS011;4282;49.986;7.938;2023-07-31T13:32:43;2.47;;;1.60;;
8490;SDS011;4282;49.986;7.938;2023-07-31T13:35:12;2.83;;;1.80;;
8490;SDS011;4282;49.986;7.938;2023-07-31T13:37:40;4.45;;;1.85;;
8490;SDS011;4282;49.986;7.938;2023-07-31T13:40:11;4.20;;;2.20;;
8490;SDS011;4282;49.986;7.938;2023-07-31T13:42:39;5.13;;;2.45;;
8490;SDS011;4282;49.986;7.938;2023-07-31T13:45:08;4.53;;;2.92;;
8490;SDS011;4282;49.986;7.938;2023-07-31T13:47:36;2.70;;;1.90;;
8490;SDS011;4282;49.986;7.938;2023-07-31T13:50:05;2.70;;;2.03;;
8490;SDS011;4282;49.986;7.938;2023-07-31T13:52:34;4.68;;;1.70;;
8490;SDS011;4282;49.986;7.938;2023-07-31T13:55:02;3.78;;;1.90;;
8490;SDS011;4282;49.986;7.938;2023-07-31T13:57:33;2.47;;;1.88;;
8490;SDS011;4282;49.986;7.938;2023-07-31T14:00:01;4.43;;;2.20;;
8490;SDS011;4282;49.986;7.938;2023-07-31T14:02:30;3.25;;;1.83;;
8490;SDS011;4282;49.986;7.938;2023-07-31T14:04:58;3.53;;;1.95;;
8490;SDS011;4282;49.986;7.938;2023-07-31T14:07:26;3.92;;;1.88;;
8490;SDS011;4282;49.986;7.938;2023-07-31T14:09:54;2.70;;;1.90;;
8490;SDS011;4282;49.986;7.938;2023-07-31T14:12:22;3.95;;;2.10;;
8490;SDS011;4282;49.986;7.938;2023-07-31T14:14:53;3.53;;;2.05;;
8490;SDS011;4282;49.986;7.938;2023-07-31T14:17:22;4.07;;;1.85;;
8490;SDS011;4282;49.986;7.938;2023-07-31T14:19:50;3.30;;;2.20;;
8490;SDS011;4282;49.986;7.938;2023-07-31T14:22:26;3.60;;;2.00;;
8490;SDS011;4282;49.986;7.938;2023-07-31T14:24:55;6.03;;;2.10;;
8490;SDS011;4282;49.986;7.938;2023-07-31T14:27:23;4.90;;;2.05;;
8490;SDS011;4282;49.986;7.938;2023-07-31T14:29:54;4.57;;;1.45;;
8490;SDS011;4282;49.986;7.938;2023-07-31T14:32:23;2.28;;;1.13;;
8490;SDS011;4282;49.986;7.938;2023-07-31T14:34:51;1.30;;;1.15;;
8490;SDS011;4282;49.986;7.938;2023-07-31T14:37:19;1.58;;;1.20;;
8490;SDS011;4282;49.986;7.938;2023-07-31T14:39:47;1.75;;;1.15;;
8490;SDS011;4282;49.986;7.938;2023-07-31T14:42:16;1.85;;;1.33;;
8490;SDS011;4282;49.986;7.938;2023-07-31T14:44:44;1.65;;;1.55;;
8490;SDS011;4282;49.986;7.938;2023-07-31T14:47:15;1.42;;;1.23;;
8490;SDS011;4282;49.986;7.938;2023-07-31T14:49:43;1.70;;;1.17;;
8490;SDS011;4282;49.986;7.938;2023-07-31T14:52:12;2.45;;;1.20;;
8490;SDS011;4282;49.986;7.938;2023-07-31T14:54:40;4.22;;;1.27;;
8490;SDS011;4282;49.986;7.938;2023-07-31T14:57:08;1.15;;;0.90;;
8490;SDS011;4282;49.986;7.938;2023-07-31T14:59:36;1.35;;;1.20;;
8490;SDS011;4282;49.986;7.938;2023-07-31T15:02:05;3.33;;;1.20;;
8490;SDS011;4282;49.986;7.938;2023-07-31T15:04:36;2.63;;;1.20;;
8490;SDS011;4282;49.986;7.938;2023-07-31T15:07:05;1.90;;;0.82;;
8490;SDS011;4282;49.986;7.938;2023-07-31T15:09:33;1.40;;;1.08;;
8490;SDS011;4282;49.986;7.938;2023-07-31T15:12:02;1.60;;;1.20;;
8490;SDS011;4282;49.986;7.938;2023-07-31T15:14:30;1.52;;;1.00;;
8490;SDS011;4282;49.986;7.938;2023-07-31T15:16:59;1.80;;;1.23;;
8490;SDS011;4282;49.986;7.938;2023-07-31T15:19:28;2.15;;;1.38;;
8490;SDS011;4282;49.986;7.938;2023-07-31T15:22:02;1.48;;;1.38;;
8490;SDS011;4282;49.986;7.938;2023-07-31T15:24:31;2.58;;;1.42;;
8490;SDS011;4282;49.986;7.938;2023-07-31T15:26:59;3.38;;;1.70;;
8490;SDS011;4282;49.986;7.938;2023-07-31T15:29:28;2.55;;;1.58;;
8490;SDS011;4282;49.986;7.938;2023-07-31T15:31:57;3.75;;;1.60;;
8490;SDS011;4282;49.986;7.938;2023-07-31T15:34:26;2.97;;;1.40;;